메인 페이지
METAR-TAF:

METAR-TAF

공항 :

Ilhéus, 바이아, 브라질

위도: 14-49S, 경도: 039-02W, 고도: 4m

현재 날씨관측

예보는 1 시간 0분 전, 21:00시(UTC)에 발표되었습니다.
남남동7kt
온도 26°C
습도 65%
기압 1021 hPa
시정 10km 이상
고도 2000ft 상공 구름 조금
고도 7000ft 상공 구름 많음

METAR: SBIL 132100Z 16007KT 9999 FEW020 BKN070 26/19 Q1021

시각: 19:00 (22:00 UTC)

예보

예보는 6 시간 30분 전, 15:30시(UTC)에 발표되었습니다.
예보 대상 시간: 13일 18시부터 14일 06시까지 (UTC)
남동10kt
시정 10km 이상
고도 2500ft 상공 구름 보통
확률 30% :
일시적
13일 18시부터 13일 22시까지 (UTC)
고도 2500ft 상공 구름 보통
고도 3500ft 상공 구름 조금, 타워링 적운.
시계 내 소나기
전환 중
13일 23시부터 14일 01시까지 (UTC)
서남서5kt

TAF: SBIL 131530Z 1318/1406 14010KT 9999 SCT025 TX27/1318Z TN21/1404Z PROB30 TEMPO 1318/1322 VCSH SCT025 FEW035TCU BECMG 1323/1401 25005KT RMK PGH

4,000개 이상의 공항 관측 자료 및 예보 (METAR 및 TAF 보고).

지도상에서 검색 가능한 기상관측소가 노란 점과 빨간 점으로 표시되어 있습니다.

기상관측소 명을 보려면 표시 위로 마우스를 이동하세요.

날씨 관측과 예보를 보려면 클릭하세요.

지도 변경 : 확대하려면 엑스 표시가 있는 녹색 버튼, 축소하려면 빼기 표시가 있는 녹색 버튼, 다음 페이지의 지도를 보려면 녹색 화살표를 클릭하세요.


METAR-TAF: